sensor_id;sensor_type;location;lat;lon;timestamp;P1;durP1;ratioP1;P2;durP2;ratioP2
19869;SDS011;10097;50.862;4.696;2023-03-14T00:01:50;6.83;;;0.80;;
19869;SDS011;10097;50.862;4.696;2023-03-14T00:04:16;8.43;;;1.40;;
19869;SDS011;10097;50.862;4.696;2023-03-14T00:06:42;6.27;;;0.77;;
19869;SDS011;10097;50.862;4.696;2023-03-14T00:09:11;11.03;;;1.73;;
19869;SDS011;10097;50.862;4.696;2023-03-14T00:11:38;3.33;;;0.83;;
19869;SDS011;10097;50.862;4.696;2023-03-14T00:14:05;10.77;;;1.30;;
19869;SDS011;10097;50.862;4.696;2023-03-14T00:16:32;4.83;;;1.20;;
19869;SDS011;10097;50.862;4.696;2023-03-14T00:18:58;8.23;;;1.33;;
19869;SDS011;10097;50.862;4.696;2023-03-14T00:21:24;7.27;;;0.97;;
19869;SDS011;10097;50.862;4.696;2023-03-14T00:23:53;7.00;;;1.03;;
19869;SDS011;10097;50.862;4.696;2023-03-14T00:26:21;11.33;;;1.60;;
19869;SDS011;10097;50.862;4.696;2023-03-14T00:28:50;8.67;;;1.43;;
19869;SDS011;10097;50.862;4.696;2023-03-14T00:31:19;10.03;;;1.17;;
19869;SDS011;10097;50.862;4.696;2023-03-14T00:33:45;8.77;;;1.80;;
19869;SDS011;10097;50.862;4.696;2023-03-14T00:36:13;10.83;;;1.70;;
19869;SDS011;10097;50.862;4.696;2023-03-14T00:38:41;10.03;;;2.03;;
19869;SDS011;10097;50.862;4.696;2023-03-14T00:41:12;8.80;;;1.70;;
19869;SDS011;10097;50.862;4.696;2023-03-14T00:43:40;7.00;;;1.13;;
19869;SDS011;10097;50.862;4.696;2023-03-14T00:46:08;9.67;;;1.57;;
19869;SDS011;10097;50.862;4.696;2023-03-14T00:48:34;11.13;;;1.53;;
19869;SDS011;10097;50.862;4.696;2023-03-14T00:51:02;6.80;;;1.33;;
19869;SDS011;10097;50.862;4.696;2023-03-14T00:53:32;10.17;;;1.60;;
19869;SDS011;10097;50.862;4.696;2023-03-14T00:56:03;8.73;;;1.77;;
19869;SDS011;10097;50.862;4.696;2023-03-14T00:58:31;10.43;;;1.40;;
19869;SDS011;10097;50.862;4.696;2023-03-14T01:00:57;7.60;;;1.57;;
19869;SDS011;10097;50.862;4.696;2023-03-14T01:03:24;9.27;;;1.63;;
19869;SDS011;10097;50.862;4.696;2023-03-14T01:05:50;10.57;;;1.67;;
19869;SDS011;10097;50.862;4.696;2023-03-14T01:08:16;8.90;;;1.37;;
19869;SDS011;10097;50.862;4.696;2023-03-14T01:10:42;13.13;;;1.57;;
19869;SDS011;10097;50.862;4.696;2023-03-14T01:13:09;11.50;;;1.80;;
19869;SDS011;10097;50.862;4.696;2023-03-14T01:15:35;10.60;;;1.67;;
19869;SDS011;10097;50.862;4.696;2023-03-14T01:18:04;7.87;;;1.40;;
19869;SDS011;10097;50.862;4.696;2023-03-14T01:20:31;11.00;;;1.87;;
19869;SDS011;10097;50.862;4.696;2023-03-14T01:22:58;8.40;;;1.80;;
19869;SDS011;10097;50.862;4.696;2023-03-14T01:25:24;9.10;;;1.43;;
19869;SDS011;10097;50.862;4.696;2023-03-14T01:27:50;9.93;;;2.33;;
19869;SDS011;10097;50.862;4.696;2023-03-14T01:30:16;10.87;;;1.77;;
19869;SDS011;10097;50.862;4.696;2023-03-14T01:32:43;10.37;;;1.50;;
19869;SDS011;10097;50.862;4.696;2023-03-14T01:35:10;11.90;;;2.10;;
19869;SDS011;10097;50.862;4.696;2023-03-14T01:37:36;12.53;;;1.70;;
19869;SDS011;10097;50.862;4.696;2023-03-14T01:40:01;13.37;;;1.40;;
19869;SDS011;10097;50.862;4.696;2023-03-14T01:42:28;10.80;;;1.50;;
19869;SDS011;10097;50.862;4.696;2023-03-14T01:44:55;9.67;;;1.53;;
19869;SDS011;10097;50.862;4.696;2023-03-14T01:47:23;13.57;;;1.90;;
19869;SDS011;10097;50.862;4.696;2023-03-14T01:50:10;12.90;;;2.13;;
19869;SDS011;10097;50.862;4.696;2023-03-14T01:52:46;12.07;;;1.80;;
19869;SDS011;10097;50.862;4.696;2023-03-14T01:55:26;9.00;;;1.77;;
19869;SDS011;10097;50.862;4.696;2023-03-14T01:57:56;17.30;;;2.10;;
19869;SDS011;10097;50.862;4.696;2023-03-14T02:00:34;11.43;;;1.60;;
19869;SDS011;10097;50.862;4.696;2023-03-14T02:03:02;10.33;;;1.47;;
19869;SDS011;10097;50.862;4.696;2023-03-14T02:05:37;9.20;;;1.53;;
19869;SDS011;10097;50.862;4.696;2023-03-14T02:08:05;7.03;;;1.43;;
19869;SDS011;10097;50.862;4.696;2023-03-14T02:10:41;7.27;;;0.83;;
19869;SDS011;10097;50.862;4.696;2023-03-14T02:13:09;8.60;;;1.20;;
19869;SDS011;10097;50.862;4.696;2023-03-14T02:15:37;7.37;;;1.40;;
19869;SDS011;10097;50.862;4.696;2023-03-14T02:18:04;12.43;;;2.07;;
19869;SDS011;10097;50.862;4.696;2023-03-14T02:29:46;6.90;;;0.70;;
19869;SDS011;10097;50.862;4.696;2023-03-14T02:32:32;9.13;;;1.20;;
19869;SDS011;10097;50.862;4.696;2023-03-14T02:35:00;7.03;;;1.03;;
19869;SDS011;10097;50.862;4.696;2023-03-14T02:37:38;10.00;;;1.13;;
19869;SDS011;10097;50.862;4.696;2023-03-14T02:40:16;6.63;;;0.90;;
19869;SDS011;10097;50.862;4.696;2023-03-14T02:42:57;6.57;;;1.30;;
19869;SDS011;10097;50.862;4.696;2023-03-14T02:45:40;4.67;;;1.00;;
19869;SDS011;10097;50.862;4.696;2023-03-14T02:48:21;6.50;;;0.93;;
19869;SDS011;10097;50.862;4.696;2023-03-14T02:50:54;5.50;;;0.63;;
19869;SDS011;10097;50.862;4.696;2023-03-14T02:53:38;10.27;;;1.03;;
19869;SDS011;10097;50.862;4.696;2023-03-14T02:56:09;6.37;;;1.00;;
19869;SDS011;10097;50.862;4.696;2023-03-14T02:58:38;7.17;;;1.00;;
19869;SDS011;10097;50.862;4.696;2023-03-14T03:01:14;8.73;;;1.10;;
19869;SDS011;10097;50.862;4.696;2023-03-14T03:03:41;6.57;;;1.30;;
19869;SDS011;10097;50.862;4.696;2023-03-14T03:06:09;6.33;;;0.97;;
19869;SDS011;10097;50.862;4.696;2023-03-14T03:08:39;9.00;;;1.27;;
19869;SDS011;10097;50.862;4.696;2023-03-14T03:11:06;9.80;;;1.20;;
19869;SDS011;10097;50.862;4.696;2023-03-14T03:13:35;7.70;;;1.47;;
19869;SDS011;10097;50.862;4.696;2023-03-14T03:16:05;9.20;;;1.43;;
19869;SDS011;10097;50.862;4.696;2023-03-14T03:18:31;8.23;;;1.30;;
19869;SDS011;10097;50.862;4.696;2023-03-14T03:21:06;8.07;;;1.50;;
19869;SDS011;10097;50.862;4.696;2023-03-14T03:23:33;9.93;;;2.07;;
19869;SDS011;10097;50.862;4.696;2023-03-14T03:25:59;11.77;;;1.60;;
19869;SDS011;10097;50.862;4.696;2023-03-14T03:28:25;7.13;;;1.70;;
19869;SDS011;10097;50.862;4.696;2023-03-14T03:30:52;10.03;;;2.20;;
19869;SDS011;10097;50.862;4.696;2023-03-14T03:33:19;13.00;;;2.17;;
19869;SDS011;10097;50.862;4.696;2023-03-14T03:35:46;9.17;;;2.50;;
19869;SDS011;10097;50.862;4.696;2023-03-14T03:38:14;16.70;;;2.40;;
19869;SDS011;10097;50.862;4.696;2023-03-14T03:40:41;11.73;;;2.07;;
19869;SDS011;10097;50.862;4.696;2023-03-14T03:43:07;9.03;;;2.50;;
19869;SDS011;10097;50.862;4.696;2023-03-14T03:45:35;15.10;;;2.40;;
19869;SDS011;10097;50.862;4.696;2023-03-14T03:48:03;14.60;;;2.40;;
19869;SDS011;10097;50.862;4.696;2023-03-14T03:50:29;13.17;;;1.90;;
19869;SDS011;10097;50.862;4.696;2023-03-14T03:52:59;12.20;;;2.17;;
19869;SDS011;10097;50.862;4.696;2023-03-14T03:55:25;12.87;;;2.23;;
19869;SDS011;10097;50.862;4.696;2023-03-14T03:57:53;13.53;;;2.10;;
19869;SDS011;10097;50.862;4.696;2023-03-14T04:00:20;7.00;;;1.70;;
19869;SDS011;10097;50.862;4.696;2023-03-14T04:02:46;7.70;;;1.60;;
19869;SDS011;10097;50.862;4.696;2023-03-14T04:05:11;8.27;;;2.00;;
19869;SDS011;10097;50.862;4.696;2023-03-14T04:07:37;13.57;;;1.67;;
19869;SDS011;10097;50.862;4.696;2023-03-14T04:10:04;10.03;;;1.70;;
19869;SDS011;10097;50.862;4.696;2023-03-14T04:12:30;8.67;;;2.30;;
19869;SDS011;10097;50.862;4.696;2023-03-14T04:14:56;12.80;;;1.83;;
19869;SDS011;10097;50.862;4.696;2023-03-14T04:17:21;11.80;;;2.00;;
19869;SDS011;10097;50.862;4.696;2023-03-14T04:19:47;10.83;;;1.97;;
19869;SDS011;10097;50.862;4.696;2023-03-14T04:22:16;7.43;;;1.60;;
19869;SDS011;10097;50.862;4.696;2023-03-14T04:24:41;7.03;;;1.50;;
19869;SDS011;10097;50.862;4.696;2023-03-14T04:27:07;8.60;;;1.93;;
19869;SDS011;10097;50.862;4.696;2023-03-14T04:29:33;7.27;;;2.33;;
19869;SDS011;10097;50.862;4.696;2023-03-14T04:31:58;12.23;;;1.47;;
19869;SDS011;10097;50.862;4.696;2023-03-14T04:34:24;10.60;;;1.80;;
19869;SDS011;10097;50.862;4.696;2023-03-14T04:36:50;8.50;;;1.60;;
19869;SDS011;10097;50.862;4.696;2023-03-14T04:39:15;10.03;;;2.47;;
19869;SDS011;10097;50.862;4.696;2023-03-14T04:41:41;8.70;;;1.80;;
19869;SDS011;10097;50.862;4.696;2023-03-14T04:44:07;11.93;;;1.60;;
19869;SDS011;10097;50.862;4.696;2023-03-14T04:46:32;11.93;;;1.90;;
19869;SDS011;10097;50.862;4.696;2023-03-14T04:48:58;11.00;;;1.50;;
19869;SDS011;10097;50.862;4.696;2023-03-14T04:51:25;7.40;;;1.80;;
19869;SDS011;10097;50.862;4.696;2023-03-14T04:53:52;6.67;;;1.47;;
19869;SDS011;10097;50.862;4.696;2023-03-14T04:56:20;5.17;;;1.10;;
19869;SDS011;10097;50.862;4.696;2023-03-14T04:58:45;6.87;;;1.00;;
19869;SDS011;10097;50.862;4.696;2023-03-14T05:01:11;6.23;;;1.20;;
19869;SDS011;10097;50.862;4.696;2023-03-14T05:03:37;9.47;;;1.50;;
19869;SDS011;10097;50.862;4.696;2023-03-14T05:06:03;6.33;;;1.20;;
19869;SDS011;10097;50.862;4.696;2023-03-14T05:08:29;7.50;;;1.40;;
19869;SDS011;10097;50.862;4.696;2023-03-14T05:10:56;7.30;;;1.40;;
19869;SDS011;10097;50.862;4.696;2023-03-14T05:13:22;5.17;;;1.27;;
19869;SDS011;10097;50.862;4.696;2023-03-14T05:15:49;7.70;;;1.77;;
19869;SDS011;10097;50.862;4.696;2023-03-14T05:18:15;9.00;;;1.60;;
19869;SDS011;10097;50.862;4.696;2023-03-14T05:20:42;6.53;;;1.57;;
19869;SDS011;10097;50.862;4.696;2023-03-14T05:23:10;5.17;;;1.10;;
19869;SDS011;10097;50.862;4.696;2023-03-14T05:25:36;6.70;;;1.40;;
19869;SDS011;10097;50.862;4.696;2023-03-14T05:28:01;4.73;;;1.20;;
19869;SDS011;10097;50.862;4.696;2023-03-14T05:30:27;5.10;;;1.40;;
19869;SDS011;10097;50.862;4.696;2023-03-14T05:32:53;8.20;;;1.93;;
19869;SDS011;10097;50.862;4.696;2023-03-14T05:35:19;8.27;;;1.90;;
19869;SDS011;10097;50.862;4.696;2023-03-14T05:37:45;6.50;;;1.20;;
19869;SDS011;10097;50.862;4.696;2023-03-14T05:40:11;3.43;;;1.33;;
19869;SDS011;10097;50.862;4.696;2023-03-14T05:42:38;7.43;;;1.47;;
19869;SDS011;10097;50.862;4.696;2023-03-14T05:45:04;5.03;;;1.20;;
19869;SDS011;10097;50.862;4.696;2023-03-14T05:47:34;2.40;;;0.90;;
19869;SDS011;10097;50.862;4.696;2023-03-14T05:50:01;3.13;;;1.27;;
19869;SDS011;10097;50.862;4.696;2023-03-14T05:52:34;4.23;;;1.50;;
19869;SDS011;10097;50.862;4.696;2023-03-14T05:55:01;4.83;;;1.40;;
19869;SDS011;10097;50.862;4.696;2023-03-14T05:57:27;4.27;;;1.53;;
19869;SDS011;10097;50.862;4.696;2023-03-14T05:59:53;5.70;;;2.00;;
19869;SDS011;10097;50.862;4.696;2023-03-14T06:02:20;4.47;;;1.47;;
19869;SDS011;10097;50.862;4.696;2023-03-14T06:04:46;6.67;;;1.70;;
19869;SDS011;10097;50.862;4.696;2023-03-14T06:07:12;5.73;;;1.87;;
19869;SDS011;10097;50.862;4.696;2023-03-14T06:09:38;7.17;;;2.20;;
19869;SDS011;10097;50.862;4.696;2023-03-14T06:12:04;8.10;;;2.53;;
19869;SDS011;10097;50.862;4.696;2023-03-14T06:14:31;6.47;;;2.40;;
19869;SDS011;10097;50.862;4.696;2023-03-14T06:16:57;6.30;;;2.33;;
19869;SDS011;10097;50.862;4.696;2023-03-14T06:19:24;7.57;;;2.73;;
19869;SDS011;10097;50.862;4.696;2023-03-14T06:21:57;6.40;;;2.47;;
19869;SDS011;10097;50.862;4.696;2023-03-14T06:24:28;9.43;;;3.03;;
19869;SDS011;10097;50.862;4.696;2023-03-14T06:26:57;6.80;;;2.77;;
19869;SDS011;10097;50.862;4.696;2023-03-14T06:29:23;7.43;;;2.67;;
19869;SDS011;10097;50.862;4.696;2023-03-14T06:31:50;9.83;;;3.10;;
19869;SDS011;10097;50.862;4.696;2023-03-14T06:34:15;7.77;;;2.80;;
19869;SDS011;10097;50.862;4.696;2023-03-14T06:36:41;9.20;;;2.90;;
19869;SDS011;10097;50.862;4.696;2023-03-14T06:39:07;9.50;;;3.57;;
19869;SDS011;10097;50.862;4.696;2023-03-14T06:41:42;8.20;;;2.97;;
19869;SDS011;10097;50.862;4.696;2023-03-14T06:44:07;7.63;;;3.43;;
19869;SDS011;10097;50.862;4.696;2023-03-14T06:46:39;9.50;;;3.77;;
19869;SDS011;10097;50.862;4.696;2023-03-14T06:49:05;7.43;;;3.60;;
19869;SDS011;10097;50.862;4.696;2023-03-14T06:51:32;8.47;;;3.43;;
19869;SDS011;10097;50.862;4.696;2023-03-14T06:53:59;9.97;;;3.67;;
19869;SDS011;10097;50.862;4.696;2023-03-14T06:56:26;6.07;;;2.77;;
19869;SDS011;10097;50.862;4.696;2023-03-14T06:58:52;10.13;;;3.30;;
19869;SDS011;10097;50.862;4.696;2023-03-14T07:01:22;10.17;;;2.53;;
19869;SDS011;10097;50.862;4.696;2023-03-14T07:03:50;8.43;;;2.90;;
19869;SDS011;10097;50.862;4.696;2023-03-14T07:06:16;7.00;;;2.27;;
19869;SDS011;10097;50.862;4.696;2023-03-14T07:08:41;4.67;;;1.90;;
19869;SDS011;10097;50.862;4.696;2023-03-14T07:11:10;4.47;;;1.40;;
19869;SDS011;10097;50.862;4.696;2023-03-14T07:13:39;3.00;;;1.00;;
19869;SDS011;10097;50.862;4.696;2023-03-14T07:16:20;3.67;;;0.77;;
19869;SDS011;10097;50.862;4.696;2023-03-14T07:18:47;2.37;;;0.67;;
19869;SDS011;10097;50.862;4.696;2023-03-14T07:21:14;1.60;;;0.53;;
19869;SDS011;10097;50.862;4.696;2023-03-14T07:23:40;4.97;;;0.60;;
19869;SDS011;10097;50.862;4.696;2023-03-14T07:26:07;3.33;;;0.80;;
19869;SDS011;10097;50.862;4.696;2023-03-14T07:28:35;1.90;;;0.53;;
19869;SDS011;10097;50.862;4.696;2023-03-14T07:31:02;1.77;;;0.80;;
19869;SDS011;10097;50.862;4.696;2023-03-14T07:33:28;3.53;;;0.87;;
19869;SDS011;10097;50.862;4.696;2023-03-14T07:35:54;2.20;;;0.80;;
19869;SDS011;10097;50.862;4.696;2023-03-14T07:38:20;2.43;;;0.80;;
19869;SDS011;10097;50.862;4.696;2023-03-14T07:40:46;5.30;;;1.30;;
19869;SDS011;10097;50.862;4.696;2023-03-14T07:43:12;4.47;;;1.30;;
19869;SDS011;10097;50.862;4.696;2023-03-14T07:45:39;6.60;;;1.37;;
19869;SDS011;10097;50.862;4.696;2023-03-14T07:48:07;5.57;;;1.43;;
19869;SDS011;10097;50.862;4.696;2023-03-14T07:50:33;3.70;;;1.57;;
19869;SDS011;10097;50.862;4.696;2023-03-14T07:53:08;6.40;;;1.97;;
19869;SDS011;10097;50.862;4.696;2023-03-14T07:55:33;4.63;;;2.00;;
19869;SDS011;10097;50.862;4.696;2023-03-14T07:57:59;9.00;;;2.50;;
19869;SDS011;10097;50.862;4.696;2023-03-14T08:00:26;8.40;;;2.40;;
19869;SDS011;10097;50.862;4.696;2023-03-14T08:02:52;9.07;;;2.43;;
19869;SDS011;10097;50.862;4.696;2023-03-14T08:05:18;8.10;;;2.50;;
19869;SDS011;10097;50.862;4.696;2023-03-14T08:07:44;6.30;;;2.63;;
19869;SDS011;10097;50.862;4.696;2023-03-14T08:10:09;6.87;;;2.30;;
19869;SDS011;10097;50.862;4.696;2023-03-14T08:12:35;7.40;;;2.20;;
19869;SDS011;10097;50.862;4.696;2023-03-14T08:15:01;9.93;;;2.70;;
19869;SDS011;10097;50.862;4.696;2023-03-14T08:17:27;9.37;;;2.53;;
19869;SDS011;10097;50.862;4.696;2023-03-14T08:19:52;8.07;;;3.00;;
19869;SDS011;10097;50.862;4.696;2023-03-14T08:22:18;10.23;;;2.63;;
19869;SDS011;10097;50.862;4.696;2023-03-14T08:24:44;6.37;;;2.77;;
19869;SDS011;10097;50.862;4.696;2023-03-14T08:27:09;8.17;;;2.67;;
19869;SDS011;10097;50.862;4.696;2023-03-14T08:29:35;7.10;;;2.80;;
19869;SDS011;10097;50.862;4.696;2023-03-14T08:32:01;6.53;;;2.77;;
19869;SDS011;10097;50.862;4.696;2023-03-14T08:34:27;9.27;;;2.23;;
19869;SDS011;10097;50.862;4.696;2023-03-14T08:36:52;6.73;;;2.00;;
19869;SDS011;10097;50.862;4.696;2023-03-14T08:39:20;6.83;;;2.10;;
19869;SDS011;10097;50.862;4.696;2023-03-14T08:41:49;7.10;;;1.93;;
19869;SDS011;10097;50.862;4.696;2023-03-14T08:44:14;6.17;;;2.10;;
19869;SDS011;10097;50.862;4.696;2023-03-14T08:46:40;6.37;;;2.13;;
19869;SDS011;10097;50.862;4.696;2023-03-14T08:49:06;7.23;;;2.37;;
19869;SDS011;10097;50.862;4.696;2023-03-14T08:51:31;5.83;;;2.30;;
19869;SDS011;10097;50.862;4.696;2023-03-14T08:53:57;7.83;;;2.33;;
19869;SDS011;10097;50.862;4.696;2023-03-14T08:56:23;6.77;;;2.73;;
19869;SDS011;10097;50.862;4.696;2023-03-14T08:58:48;7.53;;;2.53;;
19869;SDS011;10097;50.862;4.696;2023-03-14T09:01:14;5.57;;;2.17;;
19869;SDS011;10097;50.862;4.696;2023-03-14T09:03:39;4.50;;;1.83;;
19869;SDS011;10097;50.862;4.696;2023-03-14T09:06:06;11.30;;;2.60;;
19869;SDS011;10097;50.862;4.696;2023-03-14T09:08:34;6.57;;;2.40;;
19869;SDS011;10097;50.862;4.696;2023-03-14T09:11:00;6.47;;;2.60;;
19869;SDS011;10097;50.862;4.696;2023-03-14T09:13:26;11.57;;;2.93;;
19869;SDS011;10097;50.862;4.696;2023-03-14T09:15:52;10.10;;;2.47;;
19869;SDS011;10097;50.862;4.696;2023-03-14T09:18:20;5.03;;;2.47;;
19869;SDS011;10097;50.862;4.696;2023-03-14T09:20:47;11.80;;;2.93;;
19869;SDS011;10097;50.862;4.696;2023-03-14T09:23:14;5.73;;;2.10;;
19869;SDS011;10097;50.862;4.696;2023-03-14T09:25:39;8.67;;;2.47;;
19869;SDS011;10097;50.862;4.696;2023-03-14T09:28:05;8.60;;;3.03;;
19869;SDS011;10097;50.862;4.696;2023-03-14T09:30:31;9.20;;;2.47;;
19869;SDS011;10097;50.862;4.696;2023-03-14T09:32:58;6.43;;;2.77;;
19869;SDS011;10097;50.862;4.696;2023-03-14T09:35:25;8.57;;;2.87;;
19869;SDS011;10097;50.862;4.696;2023-03-14T09:37:51;6.67;;;1.93;;
19869;SDS011;10097;50.862;4.696;2023-03-14T09:40:18;6.60;;;2.27;;
19869;SDS011;10097;50.862;4.696;2023-03-14T09:42:45;9.00;;;2.50;;
19869;SDS011;10097;50.862;4.696;2023-03-14T09:45:21;5.40;;;2.30;;
19869;SDS011;10097;50.862;4.696;2023-03-14T09:47:50;10.73;;;2.83;;
19869;SDS011;10097;50.862;4.696;2023-03-14T09:50:18;7.07;;;3.00;;
19869;SDS011;10097;50.862;4.696;2023-03-14T09:52:46;7.90;;;2.90;;
19869;SDS011;10097;50.862;4.696;2023-03-14T09:55:24;7.83;;;2.50;;
19869;SDS011;10097;50.862;4.696;2023-03-14T09:57:53;9.20;;;3.00;;
19869;SDS011;10097;50.862;4.696;2023-03-14T10:00:23;12.93;;;2.80;;
19869;SDS011;10097;50.862;4.696;2023-03-14T10:02:58;9.60;;;2.37;;
19869;SDS011;10097;50.862;4.696;2023-03-14T10:05:32;9.67;;;3.17;;
19869;SDS011;10097;50.862;4.696;2023-03-14T10:08:04;11.53;;;2.87;;
19869;SDS011;10097;50.862;4.696;2023-03-14T10:10:31;13.23;;;3.30;;
19869;SDS011;10097;50.862;4.696;2023-03-14T10:15:41;14.33;;;3.03;;
19869;SDS011;10097;50.862;4.696;2023-03-14T10:18:12;10.70;;;2.90;;
19869;SDS011;10097;50.862;4.696;2023-03-14T10:20:39;10.73;;;2.57;;
19869;SDS011;10097;50.862;4.696;2023-03-14T10:25:40;9.73;;;3.00;;
19869;SDS011;10097;50.862;4.696;2023-03-14T10:28:22;15.53;;;2.77;;
19869;SDS011;10097;50.862;4.696;2023-03-14T10:30:48;14.87;;;3.03;;
19869;SDS011;10097;50.862;4.696;2023-03-14T10:33:26;12.80;;;2.70;;
19869;SDS011;10097;50.862;4.696;2023-03-14T10:35:54;8.07;;;2.30;;
19869;SDS011;10097;50.862;4.696;2023-03-14T10:38:26;9.73;;;2.20;;
19869;SDS011;10097;50.862;4.696;2023-03-14T10:40:54;6.77;;;1.63;;
19869;SDS011;10097;50.862;4.696;2023-03-14T10:43:31;9.33;;;1.73;;
19869;SDS011;10097;50.862;4.696;2023-03-14T10:46:08;8.50;;;2.07;;
19869;SDS011;10097;50.862;4.696;2023-03-14T10:48:38;7.90;;;1.77;;
19869;SDS011;10097;50.862;4.696;2023-03-14T10:53:45;5.57;;;1.17;;
19869;SDS011;10097;50.862;4.696;2023-03-14T10:56:20;2.37;;;0.83;;
19869;SDS011;10097;50.862;4.696;2023-03-14T10:58:50;4.10;;;0.97;;
19869;SDS011;10097;50.862;4.696;2023-03-14T11:01:38;3.57;;;1.00;;
19869;SDS011;10097;50.862;4.696;2023-03-14T11:04:25;7.97;;;1.47;;
19869;SDS011;10097;50.862;4.696;2023-03-14T11:19:02;4.87;;;0.70;;
19869;SDS011;10097;50.862;4.696;2023-03-14T11:22:03;3.90;;;0.63;;
19869;SDS011;10097;50.862;4.696;2023-03-14T11:27:23;5.83;;;1.13;;
19869;SDS011;10097;50.862;4.696;2023-03-14T11:30:21;2.70;;;1.07;;
19869;SDS011;10097;50.862;4.696;2023-03-14T11:33:03;6.80;;;0.93;;
19869;SDS011;10097;50.862;4.696;2023-03-14T11:35:59;5.70;;;1.80;;
19869;SDS011;10097;50.862;4.696;2023-03-14T11:38:45;6.00;;;1.60;;
19869;SDS011;10097;50.862;4.696;2023-03-14T11:41:15;4.80;;;1.10;;
19869;SDS011;10097;50.862;4.696;2023-03-14T11:44:03;5.73;;;1.00;;
19869;SDS011;10097;50.862;4.696;2023-03-14T11:46:41;3.90;;;0.80;;
19869;SDS011;10097;50.862;4.696;2023-03-14T11:49:17;7.70;;;1.37;;
19869;SDS011;10097;50.862;4.696;2023-03-14T11:51:47;6.03;;;1.07;;
19869;SDS011;10097;50.862;4.696;2023-03-14T11:54:23;4.67;;;0.70;;
19869;SDS011;10097;50.862;4.696;2023-03-14T11:56:52;2.53;;;0.50;;
19869;SDS011;10097;50.862;4.696;2023-03-14T12:13:57;2.37;;;0.40;;
19869;SDS011;10097;50.862;4.696;2023-03-14T12:18:48;1.53;;;0.40;;
19869;SDS011;10097;50.862;4.696;2023-03-14T12:21:15;1.70;;;0.40;;
19869;SDS011;10097;50.862;4.696;2023-03-14T12:23:42;3.07;;;0.40;;
19869;SDS011;10097;50.862;4.696;2023-03-14T12:28:36;1.93;;;0.30;;
19869;SDS011;10097;50.862;4.696;2023-03-14T12:32:05;1.30;;;0.40;;
19869;SDS011;10097;50.862;4.696;2023-03-14T12:42:02;3.13;;;0.80;;
19869;SDS011;10097;50.862;4.696;2023-03-14T12:44:41;1.67;;;0.40;;
19869;SDS011;10097;50.862;4.696;2023-03-14T12:48:09;0.80;;;0.47;;
19869;SDS011;10097;50.862;4.696;2023-03-14T12:50:34;3.73;;;0.60;;
19869;SDS011;10097;50.862;4.696;2023-03-14T13:01:53;2.30;;;0.80;;
19869;SDS011;10097;50.862;4.696;2023-03-14T13:04:25;3.50;;;0.90;;
19869;SDS011;10097;50.862;4.696;2023-03-14T13:06:58;4.30;;;0.90;;
19869;SDS011;10097;50.862;4.696;2023-03-14T13:11:51;4.63;;;1.03;;
19869;SDS011;10097;50.862;4.696;2023-03-14T13:14:19;1.30;;;0.70;;
19869;SDS011;10097;50.862;4.696;2023-03-14T13:16:46;4.33;;;1.10;;
19869;SDS011;10097;50.862;4.696;2023-03-14T13:19:17;5.93;;;1.17;;
19869;SDS011;10097;50.862;4.696;2023-03-14T13:21:46;6.73;;;1.07;;
19869;SDS011;10097;50.862;4.696;2023-03-14T13:24:25;4.50;;;1.17;;
19869;SDS011;10097;50.862;4.696;2023-03-14T13:26:53;9.30;;;1.47;;
19869;SDS011;10097;50.862;4.696;2023-03-14T13:31:52;4.33;;;1.00;;
19869;SDS011;10097;50.862;4.696;2023-03-14T13:34:24;5.03;;;1.00;;
19869;SDS011;10097;50.862;4.696;2023-03-14T13:36:54;10.43;;;1.57;;
19869;SDS011;10097;50.862;4.696;2023-03-14T13:39:20;5.63;;;1.43;;
19869;SDS011;10097;50.862;4.696;2023-03-14T13:41:50;5.93;;;1.13;;
19869;SDS011;10097;50.862;4.696;2023-03-14T13:44:27;10.67;;;1.80;;
19869;SDS011;10097;50.862;4.696;2023-03-14T13:47:05;9.53;;;2.13;;
19869;SDS011;10097;50.862;4.696;2023-03-14T13:49:38;14.77;;;2.27;;
19869;SDS011;10097;50.862;4.696;2023-03-14T13:52:20;9.57;;;2.03;;
19869;SDS011;10097;50.862;4.696;2023-03-14T13:54:56;10.13;;;1.60;;
19869;SDS011;10097;50.862;4.696;2023-03-14T13:57:23;9.27;;;1.43;;
19869;SDS011;10097;50.862;4.696;2023-03-14T13:59:59;17.00;;;2.20;;
19869;SDS011;10097;50.862;4.696;2023-03-14T14:02:30;15.93;;;2.50;;
19869;SDS011;10097;50.862;4.696;2023-03-14T14:04:59;14.37;;;2.90;;
19869;SDS011;10097;50.862;4.696;2023-03-14T14:07:25;15.03;;;2.80;;
19869;SDS011;10097;50.862;4.696;2023-03-14T14:09:52;14.87;;;1.67;;
19869;SDS011;10097;50.862;4.696;2023-03-14T14:14:58;10.97;;;2.37;;
19869;SDS011;10097;50.862;4.696;2023-03-14T14:17:31;13.33;;;1.87;;
19869;SDS011;10097;50.862;4.696;2023-03-14T14:20:03;13.57;;;1.93;;
19869;SDS011;10097;50.862;4.696;2023-03-14T14:22:32;11.13;;;1.53;;
19869;SDS011;10097;50.862;4.696;2023-03-14T14:24:58;8.00;;;1.57;;
19869;SDS011;10097;50.862;4.696;2023-03-14T14:27:29;12.20;;;1.80;;
19869;SDS011;10097;50.862;4.696;2023-03-14T14:30:05;15.57;;;2.40;;
19869;SDS011;10097;50.862;4.696;2023-03-14T14:32:50;15.97;;;2.30;;
19869;SDS011;10097;50.862;4.696;2023-03-14T14:37:49;11.27;;;1.80;;
19869;SDS011;10097;50.862;4.696;2023-03-14T14:42:43;13.77;;;1.87;;
19869;SDS011;10097;50.862;4.696;2023-03-14T14:45:12;9.20;;;1.60;;
19869;SDS011;10097;50.862;4.696;2023-03-14T14:47:59;7.03;;;1.50;;
19869;SDS011;10097;50.862;4.696;2023-03-14T14:50:33;7.73;;;1.87;;
19869;SDS011;10097;50.862;4.696;2023-03-14T14:53:03;12.20;;;2.70;;
19869;SDS011;10097;50.862;4.696;2023-03-14T14:55:53;9.80;;;1.80;;
19869;SDS011;10097;50.862;4.696;2023-03-14T14:58:48;16.97;;;2.07;;
19869;SDS011;10097;50.862;4.696;2023-03-14T15:01:18;10.80;;;1.77;;
19869;SDS011;10097;50.862;4.696;2023-03-14T15:03:47;13.67;;;2.27;;
19869;SDS011;10097;50.862;4.696;2023-03-14T15:06:17;11.10;;;1.57;;
19869;SDS011;10097;50.862;4.696;2023-03-14T15:08:44;10.73;;;1.27;;
19869;SDS011;10097;50.862;4.696;2023-03-14T15:11:16;6.37;;;1.30;;
19869;SDS011;10097;50.862;4.696;2023-03-14T15:13:43;7.30;;;1.07;;
19869;SDS011;10097;50.862;4.696;2023-03-14T15:16:10;7.50;;;1.00;;
19869;SDS011;10097;50.862;4.696;2023-03-14T15:18:37;7.33;;;0.80;;
19869;SDS011;10097;50.862;4.696;2023-03-14T15:21:03;4.57;;;0.90;;
19869;SDS011;10097;50.862;4.696;2023-03-14T15:23:28;3.87;;;0.70;;
19869;SDS011;10097;50.862;4.696;2023-03-14T15:25:54;5.33;;;1.00;;
19869;SDS011;10097;50.862;4.696;2023-03-14T15:28:21;5.47;;;1.47;;
19869;SDS011;10097;50.862;4.696;2023-03-14T15:30:49;6.90;;;0.93;;
19869;SDS011;10097;50.862;4.696;2023-03-14T15:33:16;6.03;;;1.10;;
19869;SDS011;10097;50.862;4.696;2023-03-14T15:35:42;3.87;;;0.70;;
19869;SDS011;10097;50.862;4.696;2023-03-14T15:38:12;8.67;;;1.73;;
19869;SDS011;10097;50.862;4.696;2023-03-14T15:40:40;5.10;;;1.23;;
19869;SDS011;10097;50.862;4.696;2023-03-14T15:43:06;7.80;;;1.03;;
19869;SDS011;10097;50.862;4.696;2023-03-14T15:45:32;7.43;;;0.77;;
19869;SDS011;10097;50.862;4.696;2023-03-14T15:47:57;5.13;;;0.70;;
19869;SDS011;10097;50.862;4.696;2023-03-14T15:50:23;7.37;;;1.03;;
19869;SDS011;10097;50.862;4.696;2023-03-14T15:52:50;11.27;;;1.20;;
19869;SDS011;10097;50.862;4.696;2023-03-14T15:55:16;7.13;;;1.00;;
19869;SDS011;10097;50.862;4.696;2023-03-14T15:57:42;12.60;;;1.70;;
19869;SDS011;10097;50.862;4.696;2023-03-14T16:00:13;5.13;;;0.97;;
19869;SDS011;10097;50.862;4.696;2023-03-14T16:02:42;4.13;;;0.70;;
19869;SDS011;10097;50.862;4.696;2023-03-14T16:05:10;7.17;;;1.17;;
19869;SDS011;10097;50.862;4.696;2023-03-14T16:07:36;3.93;;;1.00;;
19869;SDS011;10097;50.862;4.696;2023-03-14T16:10:03;5.07;;;1.03;;
19869;SDS011;10097;50.862;4.696;2023-03-14T16:12:29;6.10;;;1.07;;
19869;SDS011;10097;50.862;4.696;2023-03-14T16:14:56;5.60;;;1.23;;
19869;SDS011;10097;50.862;4.696;2023-03-14T16:17:21;5.83;;;0.90;;